Time;durP1;ratioP1;P1;durP2;ratioP2;P2;SDS_P1;SDS_P2;PMS_P1;PMS_P2;Temp;Humidity;BMP_temperature;BMP_pressure;BME280_temperature;BME280_humidity;BME280_pressure;Samples;Min_cycle;Max_cycle;Signal;HPM_P1;HPM_P2
2023/12/23 00:00:27;;;;;;;4.10;2.90;;;14.70;99.90;;;;;;5079739;28;20162;-7
2023/12/23 00:03:00;;;;;;;4.67;3.20;;;14.70;99.90;;;;;;5079317;28;20209;-7
2023/12/23 00:05:26;;;;;;;4.07;2.90;;;14.70;99.90;;;;;;5079249;28;20241;-6
2023/12/23 00:07:52;;;;;;;2.77;2.50;;;14.70;99.90;;;;;;5078821;28;20448;-7
2023/12/23 00:10:17;;;;;;;3.40;2.80;;;14.80;99.90;;;;;;5079093;28;20178;-5
2023/12/23 00:12:43;;;;;;;3.03;2.63;;;14.70;99.90;;;;;;5078619;28;20178;-7
2023/12/23 00:15:09;;;;;;;4.13;2.83;;;14.70;99.90;;;;;;5078401;28;20182;-7
2023/12/23 00:17:35;;;;;;;3.10;2.70;;;14.80;99.90;;;;;;5079641;28;20268;-7
2023/12/23 00:20:01;;;;;;;2.90;2.70;;;14.80;99.90;;;;;;5079252;28;20181;-7
2023/12/23 00:22:36;;;;;;;3.50;2.90;;;14.70;99.90;;;;;;5079435;28;20164;-6
2023/12/23 00:25:02;;;;;;;4.83;2.70;;;14.80;99.90;;;;;;5079409;28;20207;-10
2023/12/23 00:27:28;;;;;;;3.27;2.43;;;14.80;99.90;;;;;;5079544;28;20161;-7
2023/12/23 00:29:53;;;;;;;8.13;2.77;;;14.80;99.90;;;;;;5078121;28;20179;-7
2023/12/23 00:32:20;;;;;;;3.50;2.40;;;14.80;99.90;;;;;;5079327;28;20166;-7
2023/12/23 00:34:46;;;;;;;2.60;2.40;;;14.80;99.90;;;;;;5079362;28;20210;-8
2023/12/23 00:37:11;;;;;;;2.77;2.40;;;14.80;99.90;;;;;;5078750;28;20200;-6
2023/12/23 00:39:39;;;;;;;4.23;2.60;;;14.70;99.90;;;;;;5078691;28;20510;-6
2023/12/23 00:42:23;;;;;;;4.93;2.50;;;14.80;99.90;;;;;;5079213;28;20167;-8
2023/12/23 00:44:48;;;;;;;2.50;2.30;;;14.80;99.90;;;;;;5078977;28;20355;-7
2023/12/23 00:47:14;;;;;;;2.70;2.43;;;14.70;99.90;;;;;;5079003;28;20157;-7
2023/12/23 00:49:40;;;;;;;2.57;2.27;;;14.70;99.90;;;;;;5078656;28;20173;-7
2023/12/23 00:52:17;;;;;;;3.73;2.47;;;14.80;99.90;;;;;;5078434;28;20160;-7
2023/12/23 00:54:42;;;;;;;3.20;2.37;;;14.70;99.90;;;;;;5078801;28;20258;-5
2023/12/23 00:57:08;;;;;;;3.90;2.30;;;14.70;99.90;;;;;;5078048;28;20173;-5
2023/12/23 00:59:33;;;;;;;3.43;2.53;;;14.70;99.90;;;;;;5078060;28;20175;-5
2023/12/23 01:02:09;;;;;;;3.13;2.77;;;14.70;99.90;;;;;;5078408;28;20179;-5
2023/12/23 01:04:35;;;;;;;3.10;2.20;;;14.70;99.90;;;;;;5078959;28;20317;-5
2023/12/23 01:07:00;;;;;;;3.90;2.33;;;14.70;99.90;;;;;;5078132;28;20271;-8
2023/12/23 01:09:26;;;;;;;3.20;2.30;;;14.70;99.90;;;;;;5077096;28;20268;-6
2023/12/23 01:11:54;;;;;;;2.60;2.40;;;14.70;99.90;;;;;;5078370;28;20149;-6
2023/12/23 01:14:19;;;;;;;3.00;2.40;;;14.70;99.90;;;;;;5077664;28;20179;-6
2023/12/23 01:16:45;;;;;;;4.93;2.50;;;14.70;99.90;;;;;;5078462;28;20280;-6
2023/12/23 01:19:11;;;;;;;2.93;2.20;;;14.70;99.90;;;;;;5078218;28;20260;-6
2023/12/23 01:21:46;;;;;;;3.00;2.10;;;14.70;99.90;;;;;;5111282;28;20180;-6
2023/12/23 01:24:12;;;;;;;2.80;2.07;;;14.70;99.90;;;;;;5078037;28;20198;-8
2023/12/23 01:26:37;;;;;;;2.87;2.30;;;14.70;99.90;;;;;;5078364;28;20245;-6
2023/12/23 01:29:03;;;;;;;3.20;2.27;;;14.70;99.90;;;;;;5077697;28;20178;-6
2023/12/23 01:31:29;;;;;;;1.87;1.77;;;14.70;99.90;;;;;;5077467;28;20192;-6
2023/12/23 01:33:55;;;;;;;2.90;2.00;;;14.70;99.90;;;;;;5077424;28;20238;-6
2023/12/23 01:36:20;;;;;;;3.00;2.23;;;14.70;99.90;;;;;;5078209;28;20189;-6
2023/12/23 01:38:51;;;;;;;4.23;2.27;;;14.70;99.90;;;;;;5077646;28;20214;-6
2023/12/23 01:41:16;;;;;;;2.40;1.80;;;14.70;99.90;;;;;;5078041;28;20460;-6
2023/12/23 01:43:42;;;;;;;2.50;1.97;;;14.70;99.90;;;;;;5077024;28;20308;-5
2023/12/23 01:46:08;;;;;;;2.63;2.00;;;14.70;99.90;;;;;;5078075;28;20166;-6
2023/12/23 01:48:47;;;;;;;2.43;2.00;;;14.70;99.90;;;;;;5076726;28;20232;-5
2023/12/23 01:51:14;;;;;;;2.13;1.80;;;14.70;99.90;;;;;;5111358;28;20533;-6
2023/12/23 01:53:41;;;;;;;3.23;1.90;;;14.70;99.90;;;;;;5076668;28;20270;-5
2023/12/23 01:56:07;;;;;;;2.00;1.80;;;14.70;99.90;;;;;;5076517;28;20244;-6
2023/12/23 01:58:39;;;;;;;2.60;1.80;;;14.70;99.90;;;;;;5077420;28;20292;-5
2023/12/23 02:01:05;;;;;;;2.90;1.90;;;14.70;99.90;;;;;;5076776;28;20176;-6
2023/12/23 02:03:31;;;;;;;3.47;2.10;;;14.70;99.90;;;;;;5078184;28;20167;-6
2023/12/23 02:05:57;;;;;;;2.70;1.93;;;14.70;99.90;;;;;;5077331;28;20176;-6
2023/12/23 02:08:30;;;;;;;2.93;1.80;;;14.70;99.90;;;;;;5076506;28;20473;-6
2023/12/23 02:11:05;;;;;;;1.80;1.70;;;14.70;99.90;;;;;;5076584;28;20183;-6
2023/12/23 02:13:40;;;;;;;2.57;1.90;;;14.70;99.90;;;;;;5076822;28;20253;-5
2023/12/23 02:16:19;;;;;;;2.73;1.80;;;14.70;99.90;;;;;;5076519;28;20179;-5
2023/12/23 02:18:45;;;;;;;2.30;2.10;;;14.70;99.90;;;;;;5077031;28;20168;-6
2023/12/23 02:21:11;;;;;;;2.40;1.60;;;14.70;99.90;;;;;;5110019;28;20188;-5
2023/12/23 02:23:36;;;;;;;2.13;1.60;;;14.70;99.90;;;;;;5110594;28;20503;-6
2023/12/23 02:26:06;;;;;;;2.13;1.93;;;14.70;99.90;;;;;;5110173;28;20188;-6
2023/12/23 02:28:32;;;;;;;1.90;1.70;;;14.70;99.90;;;;;;5077667;28;20173;-6
2023/12/23 02:31:00;;;;;;;2.13;1.60;;;14.70;99.90;;;;;;5076831;28;20179;-6
2023/12/23 02:33:26;;;;;;;2.10;1.60;;;14.70;99.90;;;;;;5076867;28;20165;-6
2023/12/23 02:36:25;;;;;;;2.00;1.53;;;14.70;99.90;;;;;;5077320;28;20157;-7
2023/12/23 02:38:50;;;;;;;2.27;1.63;;;14.70;99.90;;;;;;5077033;28;20171;-6
2023/12/23 02:41:16;;;;;;;1.53;1.43;;;14.70;99.90;;;;;;5078050;28;20183;-6
2023/12/23 02:43:42;;;;;;;2.20;1.60;;;14.70;99.90;;;;;;5077540;28;20188;-5
2023/12/23 02:46:10;;;;;;;2.23;1.60;;;14.70;99.90;;;;;;5113108;28;20267;-5
2023/12/23 02:48:35;;;;;;;1.73;1.53;;;14.70;99.90;;;;;;5080962;28;20180;-6
2023/12/23 02:51:01;;;;;;;2.23;1.50;;;14.70;99.90;;;;;;5080155;28;20177;-6
2023/12/23 02:53:27;;;;;;;2.00;1.77;;;14.70;99.90;;;;;;5079997;28;20437;-5
2023/12/23 02:55:59;;;;;;;1.70;1.43;;;14.70;99.90;;;;;;5114389;28;20171;-5
2023/12/23 02:58:25;;;;;;;2.27;1.60;;;14.70;99.90;;;;;;5081058;28;20215;-5
2023/12/23 03:00:50;;;;;;;1.50;1.40;;;14.70;99.90;;;;;;5080174;28;20180;-5
2023/12/23 03:03:16;;;;;;;1.63;1.40;;;14.70;99.90;;;;;;5080674;28;20182;-6
2023/12/23 03:05:48;;;;;;;2.30;1.57;;;14.70;99.90;;;;;;5080273;28;20210;-6
2023/12/23 03:08:14;;;;;;;1.90;1.47;;;14.70;99.90;;;;;;5080628;28;20180;-5
2023/12/23 03:10:39;;;;;;;2.27;1.60;;;14.70;99.90;;;;;;5080792;28;20186;-5
2023/12/23 03:13:06;;;;;;;1.67;1.40;;;14.70;99.90;;;;;;5081470;28;20158;-5
2023/12/23 03:15:33;;;;;;;2.30;1.37;;;14.70;99.90;;;;;;5114291;28;20196;-6
2023/12/23 03:17:58;;;;;;;1.87;1.47;;;14.70;99.90;;;;;;5080935;28;20787;-6
2023/12/23 03:20:26;;;;;;;1.97;1.40;;;14.70;99.90;;;;;;5080083;28;20213;-6
2023/12/23 03:22:52;;;;;;;1.90;1.40;;;14.70;99.90;;;;;;5080884;28;20178;-6
2023/12/23 03:25:18;;;;;;;2.07;1.30;;;14.70;99.90;;;;;;5080788;28;20207;-6
2023/12/23 03:27:43;;;;;;;3.23;1.30;;;14.70;99.90;;;;;;5113894;28;20177;-5
2023/12/23 03:30:09;;;;;;;2.60;1.50;;;14.70;99.90;;;;;;5113906;28;20172;-5
2023/12/23 03:32:35;;;;;;;1.83;1.20;;;14.70;99.90;;;;;;5080994;28;20202;-5
2023/12/23 03:35:01;;;;;;;2.20;1.27;;;14.70;99.90;;;;;;5080653;28;20232;-6
2023/12/23 03:37:27;;;;;;;1.67;1.43;;;14.70;99.90;;;;;;5079918;28;20187;-6
2023/12/23 03:39:53;;;;;;;1.70;1.40;;;14.70;99.90;;;;;;5080227;28;20225;-6
2023/12/23 03:42:18;;;;;;;2.00;1.50;;;14.70;99.90;;;;;;5080627;28;20506;-7
2023/12/23 03:44:54;;;;;;;1.60;1.40;;;14.70;99.90;;;;;;5079378;28;20209;-6
2023/12/23 03:47:19;;;;;;;2.03;1.30;;;14.60;99.90;;;;;;5080231;28;20169;-6
2023/12/23 03:49:45;;;;;;;2.63;1.60;;;14.70;99.90;;;;;;5079298;28;20271;-6
2023/12/23 03:52:10;;;;;;;1.73;1.30;;;14.70;99.90;;;;;;5062226;28;20176;-6
2023/12/23 03:54:55;;;;;;;1.30;1.20;;;14.60;99.90;;;;;;5079111;28;20179;-6
2023/12/23 03:57:21;;;;;;;1.30;1.10;;;14.70;99.90;;;;;;5079909;28;20167;-6
2023/12/23 03:59:47;;;;;;;1.40;1.30;;;14.70;99.90;;;;;;5112909;28;20175;-6
2023/12/23 04:02:12;;;;;;;1.43;1.27;;;14.70;99.90;;;;;;5112949;28;20277;-6
2023/12/23 04:05:00;;;;;;;1.50;1.30;;;14.70;99.90;;;;;;5079735;28;20211;-6
2023/12/23 04:07:26;;;;;;;1.93;1.50;;;14.70;99.90;;;;;;5080122;28;20250;-5
2023/12/23 04:09:51;;;;;;;1.87;0.97;;;14.70;99.90;;;;;;5079405;28;20269;-6
2023/12/23 04:12:17;;;;;;;1.50;1.10;;;14.70;99.90;;;;;;5078550;28;20178;-6
2023/12/23 04:14:43;;;;;;;1.93;1.30;;;14.70;99.90;;;;;;5079037;28;20186;-5
2023/12/23 04:17:09;;;;;;;2.30;1.40;;;14.70;99.90;;;;;;5113474;28;20183;-5
2023/12/23 04:19:34;;;;;;;1.67;1.20;;;14.70;99.90;;;;;;5079512;28;20186;-6
2023/12/23 04:22:00;;;;;;;2.30;1.40;;;14.70;99.90;;;;;;5079884;28;20224;-5
2023/12/23 04:24:28;;;;;;;2.23;1.20;;;14.70;99.90;;;;;;5112760;28;20201;-5
2023/12/23 04:26:54;;;;;;;1.83;1.10;;;14.70;99.90;;;;;;5112472;28;20180;-5
2023/12/23 04:29:20;;;;;;;1.70;1.30;;;14.70;99.90;;;;;;5112792;28;20167;-5
2023/12/23 04:32:08;;;;;;;1.57;1.10;;;14.70;99.90;;;;;;5112317;28;20273;-6
2023/12/23 04:34:36;;;;;;;1.67;1.30;;;14.60;99.90;;;;;;5078498;28;20199;-5
2023/12/23 04:37:02;;;;;;;1.60;1.30;;;14.70;99.90;;;;;;5078494;28;20461;-6
2023/12/23 04:39:27;;;;;;;1.47;1.10;;;14.60;99.90;;;;;;5078730;28;20541;-6
2023/12/23 04:41:56;;;;;;;1.37;1.13;;;14.70;99.90;;;;;;5112952;28;20205;-5
2023/12/23 04:44:22;;;;;;;1.80;1.20;;;14.70;99.90;;;;;;5079289;28;20216;-6
2023/12/23 04:46:48;;;;;;;1.20;1.10;;;14.70;99.90;;;;;;5112596;28;20178;-6
2023/12/23 04:49:14;;;;;;;1.53;1.10;;;14.70;99.90;;;;;;5079336;28;20251;-5
2023/12/23 04:51:48;;;;;;;1.93;1.20;;;14.70;99.90;;;;;;5079266;28;20383;-6
2023/12/23 04:54:13;;;;;;;1.53;1.00;;;14.70;99.90;;;;;;5078793;28;20175;-6
2023/12/23 04:56:39;;;;;;;2.10;1.10;;;14.70;99.90;;;;;;5078517;28;20187;-6
2023/12/23 04:59:06;;;;;;;2.40;1.30;;;14.70;99.90;;;;;;5078265;28;20206;-5
2023/12/23 05:01:37;;;;;;;1.30;1.03;;;14.70;99.90;;;;;;5077623;28;20189;-6
2023/12/23 05:04:03;;;;;;;1.17;1.00;;;14.70;99.90;;;;;;5078262;28;20208;-5
2023/12/23 05:06:29;;;;;;;2.13;1.30;;;14.70;99.90;;;;;;5078643;28;20683;-6
2023/12/23 05:08:55;;;;;;;1.40;1.10;;;14.70;99.90;;;;;;5077382;28;20178;-6
2023/12/23 05:11:20;;;;;;;1.87;1.30;;;14.70;99.90;;;;;;5078545;28;20460;-7
2023/12/23 05:13:46;;;;;;;1.33;1.10;;;14.70;99.90;;;;;;5077770;28;20541;-6
2023/12/23 05:16:12;;;;;;;1.30;1.00;;;14.70;99.90;;;;;;5078561;28;20171;-5
2023/12/23 05:18:38;;;;;;;2.10;1.30;;;14.70;99.90;;;;;;5078265;28;20229;-6
2023/12/23 05:21:04;;;;;;;1.43;1.00;;;14.70;99.90;;;;;;5077573;28;20174;-6
2023/12/23 05:23:31;;;;;;;1.90;1.07;;;14.70;99.90;;;;;;5111131;28;20182;-5
2023/12/23 05:25:57;;;;;;;1.67;1.17;;;14.70;99.90;;;;;;5078508;28;20196;-6
2023/12/23 05:28:23;;;;;;;1.93;1.10;;;14.70;99.90;;;;;;5077725;28;20455;-6
2023/12/23 05:30:48;;;;;;;2.17;1.13;;;14.70;99.90;;;;;;5077661;28;20215;-5
2023/12/23 05:33:14;;;;;;;1.70;1.10;;;14.70;99.90;;;;;;5111410;28;20729;-5
2023/12/23 05:35:40;;;;;;;2.10;1.10;;;14.70;99.90;;;;;;5078028;28;20399;-6
2023/12/23 05:38:06;;;;;;;2.93;1.30;;;14.70;99.90;;;;;;5111496;28;20274;-5
2023/12/23 05:40:31;;;;;;;2.30;1.50;;;14.70;99.90;;;;;;5111652;28;20244;-5
2023/12/23 05:42:57;;;;;;;1.50;1.17;;;14.60;99.90;;;;;;5077598;28;20192;-5
2023/12/23 05:45:23;;;;;;;1.50;1.07;;;14.70;99.90;;;;;;5077574;28;20188;-6
2023/12/23 05:47:50;;;;;;;1.37;1.00;;;14.70;99.90;;;;;;5077295;28;20283;-6
2023/12/23 05:50:17;;;;;;;2.27;1.10;;;14.70;99.90;;;;;;5078208;28;20168;-6
2023/12/23 05:52:46;;;;;;;1.33;1.10;;;14.70;99.90;;;;;;5077635;28;20159;-8
2023/12/23 05:55:12;;;;;;;1.43;1.10;;;14.70;99.90;;;;;;5078242;28;20169;-6
2023/12/23 05:57:37;;;;;;;1.20;1.00;;;14.70;99.90;;;;;;5078216;28;20183;-5
2023/12/23 06:00:07;;;;;;;1.23;0.93;;;14.60;99.90;;;;;;5111172;28;20172;-5
2023/12/23 06:02:33;;;;;;;1.60;1.10;;;14.70;99.90;;;;;;5077663;28;20262;-5
2023/12/23 06:04:58;;;;;;;1.13;1.03;;;14.70;99.90;;;;;;5077740;28;20603;-5
2023/12/23 06:07:24;;;;;;;1.97;1.00;;;14.60;99.90;;;;;;5077753;28;20156;-5
2023/12/23 06:09:50;;;;;;;1.40;1.00;;;14.70;99.90;;;;;;5077066;28;20642;-5
2023/12/23 06:12:16;;;;;;;1.10;1.00;;;14.70;99.90;;;;;;5078005;28;20276;-5
2023/12/23 06:14:41;;;;;;;1.43;1.00;;;14.60;99.90;;;;;;5111093;28;20279;-5
2023/12/23 06:17:08;;;;;;;2.20;1.50;;;14.70;99.90;;;;;;5077755;28;20216;-6
2023/12/23 06:19:35;;;;;;;1.73;1.00;;;14.70;99.90;;;;;;5076946;28;20236;-6
2023/12/23 06:22:01;;;;;;;1.23;1.10;;;14.70;99.90;;;;;;5111046;28;20282;-6
2023/12/23 06:24:27;;;;;;;1.43;1.10;;;14.70;99.90;;;;;;5077247;28;20307;-6
2023/12/23 06:26:52;;;;;;;1.80;1.10;;;14.70;99.90;;;;;;5077643;28;20177;-6
2023/12/23 06:29:23;;;;;;;1.00;0.90;;;14.70;99.90;;;;;;5077143;28;20186;-6
2023/12/23 06:31:49;;;;;;;1.90;1.20;;;14.70;99.90;;;;;;5076991;28;20643;-6
2023/12/23 06:34:15;;;;;;;1.63;1.27;;;14.70;99.90;;;;;;5077403;28;20197;-5
2023/12/23 06:36:40;;;;;;;1.23;1.13;;;14.70;99.90;;;;;;5077339;28;20187;-6
2023/12/23 06:39:20;;;;;;;1.37;1.10;;;14.70;99.90;;;;;;5076832;28;20182;-5
2023/12/23 06:41:46;;;;;;;1.70;0.97;;;14.70;99.90;;;;;;5076375;28;20181;-6
2023/12/23 06:44:12;;;;;;;2.40;1.17;;;14.70;99.90;;;;;;5076960;28;20813;-5
2023/12/23 06:46:37;;;;;;;1.40;1.00;;;14.70;99.90;;;;;;5110536;28;20179;-6
2023/12/23 06:49:03;;;;;;;2.37;1.20;;;14.70;99.90;;;;;;5077031;28;20199;-6
2023/12/23 06:51:29;;;;;;;1.23;1.07;;;14.70;99.90;;;;;;5109183;28;20274;-6
2023/12/23 06:53:55;;;;;;;2.13;1.40;;;14.70;99.90;;;;;;5109702;28;20198;-6
2023/12/23 06:56:22;;;;;;;2.20;1.30;;;14.70;99.90;;;;;;5076446;28;20176;-5
2023/12/23 06:58:48;;;;;;;1.80;1.10;;;14.70;99.90;;;;;;5076101;28;20186;-6
2023/12/23 07:01:14;;;;;;;1.67;1.00;;;14.70;99.90;;;;;;5076700;28;20712;-6
2023/12/23 07:03:41;;;;;;;1.70;1.10;;;14.70;99.90;;;;;;5076679;28;20196;-6
2023/12/23 07:06:10;;;;;;;1.87;1.20;;;14.70;99.90;;;;;;5077039;28;20247;-5
2023/12/23 07:08:36;;;;;;;1.57;1.13;;;14.70;99.90;;;;;;5076147;28;20168;-6
2023/12/23 07:11:02;;;;;;;1.37;1.07;;;14.70;99.90;;;;;;5109228;28;20183;-6
2023/12/23 07:13:29;;;;;;;1.03;1.00;;;14.70;99.90;;;;;;5076026;28;20180;-6
2023/12/23 07:15:55;;;;;;;3.37;1.30;;;14.70;99.90;;;;;;5076601;28;20174;-5
2023/12/23 07:18:21;;;;;;;1.50;1.10;;;14.70;99.90;;;;;;5109693;28;20647;-6
2023/12/23 07:20:47;;;;;;;1.40;1.13;;;14.70;99.90;;;;;;5109593;28;20267;-6
2023/12/23 07:23:14;;;;;;;1.57;1.10;;;14.70;99.90;;;;;;5075933;28;20177;-5
2023/12/23 07:25:40;;;;;;;1.60;1.00;;;14.70;99.90;;;;;;5076218;28;20237;-5
2023/12/23 07:28:06;;;;;;;1.80;1.30;;;14.70;99.90;;;;;;5109528;28;20178;-5
2023/12/23 07:30:32;;;;;;;2.43;1.23;;;14.60;99.90;;;;;;5076558;28;20229;-6
2023/12/23 07:32:57;;;;;;;1.60;1.10;;;14.70;99.90;;;;;;5079955;28;20153;-6
2023/12/23 07:35:23;;;;;;;1.97;1.10;;;14.60;99.90;;;;;;5080050;28;20160;-6
2023/12/23 07:40:20;;;;;;;1.93;1.20;;;14.60;99.90;;;;;;5079416;28;20175;-6
2023/12/23 07:42:46;;;;;;;1.93;1.20;;;14.60;99.90;;;;;;5079480;28;20158;-6
2023/12/23 07:45:11;;;;;;;1.30;1.13;;;14.60;99.90;;;;;;5079620;28;20202;-7
2023/12/23 07:47:46;;;;;;;1.33;1.20;;;14.60;99.90;;;;;;5079670;28;20172;-6
2023/12/23 07:50:12;;;;;;;1.83;1.10;;;14.60;99.90;;;;;;5079276;28;20213;-6
2023/12/23 07:52:39;;;;;;;1.93;1.37;;;14.70;99.90;;;;;;5079104;28;20175;-6
2023/12/23 07:55:05;;;;;;;1.30;1.10;;;14.70;99.90;;;;;;5113142;28;20175;-6
2023/12/23 07:57:33;;;;;;;1.77;1.10;;;14.80;99.90;;;;;;5079298;28;20181;-6
2023/12/23 07:59:58;;;;;;;1.83;1.10;;;14.80;99.90;;;;;;5112491;28;20565;-6
2023/12/23 08:02:24;;;;;;;2.53;1.23;;;14.90;99.90;;;;;;5078823;28;20177;-6
2023/12/23 08:04:50;;;;;;;2.63;1.20;;;14.90;99.90;;;;;;5111809;28;20211;-7
2023/12/23 08:07:26;;;;;;;2.13;1.20;;;14.90;99.90;;;;;;5079109;28;20164;-7
2023/12/23 08:09:51;;;;;;;0.83;0.83;;;15.00;99.90;;;;;;5079181;28;20717;-7
2023/12/23 08:12:17;;;;;;;4.07;1.00;;;15.00;99.90;;;;;;5079169;28;20174;-5
2023/12/23 08:14:43;;;;;;;2.00;1.20;;;15.00;99.90;;;;;;5108199;28;20189;-6
2023/12/23 08:17:10;;;;;;;1.63;1.00;;;15.00;99.90;;;;;;5071517;28;20212;-6
2023/12/23 08:19:36;;;;;;;1.87;1.07;;;14.90;99.90;;;;;;5105799;28;20176;-6
2023/12/23 08:22:01;;;;;;;1.90;1.10;;;14.90;99.90;;;;;;5071439;28;20439;-6
2023/12/23 08:24:27;;;;;;;1.83;1.17;;;14.90;99.90;;;;;;5103175;28;20202;-6
2023/12/23 08:26:54;;;;;;;1.60;1.10;;;14.90;99.90;;;;;;5070546;28;20679;-7
2023/12/23 08:29:20;;;;;;;1.43;0.90;;;14.80;99.90;;;;;;5071351;28;20178;-6
2023/12/23 08:31:46;;;;;;;2.00;1.00;;;14.80;99.90;;;;;;5072456;28;20163;-6
2023/12/23 08:34:12;;;;;;;2.20;1.17;;;14.80;99.90;;;;;;5106046;28;20342;-6
2023/12/23 08:36:38;;;;;;;2.00;1.13;;;14.70;99.90;;;;;;5071920;28;20626;-5
2023/12/23 08:39:03;;;;;;;1.83;1.23;;;14.70;99.90;;;;;;5073147;28;20228;-6
2023/12/23 08:41:29;;;;;;;2.07;1.10;;;14.70;99.90;;;;;;5072173;28;20168;-6
2023/12/23 08:43:55;;;;;;;2.40;1.40;;;14.80;99.90;;;;;;5073500;28;20210;-6
2023/12/23 08:46:21;;;;;;;2.37;1.20;;;14.80;99.90;;;;;;5105273;28;20203;-6
2023/12/23 08:48:47;;;;;;;3.10;1.30;;;14.80;99.90;;;;;;5072674;28;20166;-6
2023/12/23 08:51:13;;;;;;;2.00;1.10;;;14.80;99.90;;;;;;5072347;28;20485;-5
2023/12/23 08:53:39;;;;;;;2.00;1.10;;;14.80;99.90;;;;;;5105313;28;20177;-6
2023/12/23 08:56:05;;;;;;;2.40;1.20;;;14.80;99.90;;;;;;5072087;28;20347;-6
2023/12/23 08:58:31;;;;;;;1.70;1.17;;;14.80;99.90;;;;;;5104379;28;20318;-6
2023/12/23 09:00:58;;;;;;;2.53;1.30;;;14.80;99.90;;;;;;5071140;28;20372;-6
2023/12/23 09:03:24;;;;;;;2.13;1.20;;;14.80;99.90;;;;;;5072322;28;20174;-7
2023/12/23 09:05:50;;;;;;;2.63;1.20;;;14.80;99.90;;;;;;5070904;28;20195;-5
2023/12/23 09:08:16;;;;;;;3.67;1.27;;;14.70;99.90;;;;;;5069864;28;20179;-6
2023/12/23 09:10:42;;;;;;;3.40;1.23;;;14.70;99.90;;;;;;5070526;28;20174;-5
2023/12/23 09:13:08;;;;;;;1.60;1.10;;;14.70;99.90;;;;;;5067837;28;20630;-5
2023/12/23 09:15:34;;;;;;;2.20;1.30;;;14.70;99.90;;;;;;5067693;28;20668;-5
2023/12/23 09:18:00;;;;;;;1.33;1.20;;;14.70;99.90;;;;;;5066583;28;20318;-5
2023/12/23 09:20:28;;;;;;;3.50;1.30;;;14.70;99.90;;;;;;5066401;28;20233;-6
2023/12/23 09:22:54;;;;;;;2.00;1.20;;;14.70;99.90;;;;;;5067508;28;20167;-5
2023/12/23 09:25:20;;;;;;;2.33;1.40;;;14.80;99.90;;;;;;5068208;28;20273;-6
2023/12/23 09:27:45;;;;;;;3.37;1.30;;;14.80;99.90;;;;;;5067898;28;20172;-6
2023/12/23 09:30:12;;;;;;;1.83;1.23;;;14.80;99.90;;;;;;5068355;28;20456;-5
2023/12/23 09:32:38;;;;;;;2.40;1.40;;;14.80;99.90;;;;;;5070790;28;20176;-6
2023/12/23 09:35:03;;;;;;;2.00;1.17;;;14.90;99.90;;;;;;5068721;28;20171;-6
2023/12/23 09:37:29;;;;;;;3.73;1.00;;;14.90;99.90;;;;;;5070460;28;20171;-6
2023/12/23 09:39:58;;;;;;;3.30;1.30;;;14.90;99.90;;;;;;5070782;28;20170;-6
2023/12/23 09:42:25;;;;;;;1.97;1.30;;;14.90;99.90;;;;;;5070328;28;20165;-6
2023/12/23 09:44:50;;;;;;;3.73;1.27;;;14.90;99.90;;;;;;5069693;28;20199;-6
2023/12/23 09:47:17;;;;;;;2.47;1.40;;;14.90;99.90;;;;;;5069179;28;20298;-5
2023/12/23 09:49:43;;;;;;;2.37;1.20;;;14.90;99.90;;;;;;5068989;28;20456;-6
2023/12/23 09:52:11;;;;;;;3.53;1.30;;;14.90;99.90;;;;;;5102429;28;20180;-5
2023/12/23 09:54:47;;;;;;;4.17;1.60;;;14.80;99.90;;;;;;5101620;28;20165;-6
2023/12/23 09:57:14;;;;;;;4.10;1.40;;;14.90;99.90;;;;;;5067993;28;20269;-6
2023/12/23 09:59:40;;;;;;;2.43;1.40;;;14.90;99.90;;;;;;5069304;28;20178;-6
2023/12/23 10:02:06;;;;;;;3.83;1.50;;;14.90;99.90;;;;;;5068481;28;20172;-6
2023/12/23 10:04:33;;;;;;;5.33;1.63;;;14.90;99.90;;;;;;5067280;28;20285;-6
2023/12/23 10:06:59;;;;;;;6.93;1.90;;;14.90;99.90;;;;;;5099383;28;20239;-5
2023/12/23 10:09:30;;;;;;;4.90;1.60;;;15.00;99.90;;;;;;5100719;28;20172;-6
2023/12/23 10:11:55;;;;;;;6.37;1.87;;;15.00;99.90;;;;;;5065446;28;20244;-6
2023/12/23 10:14:22;;;;;;;7.97;2.10;;;15.00;99.90;;;;;;5067927;28;20169;-6
2023/12/23 10:16:48;;;;;;;4.50;1.93;;;15.00;99.90;;;;;;5100207;28;20178;-6
2023/12/23 10:19:14;;;;;;;5.13;1.63;;;14.90;99.90;;;;;;5065474;28;20516;-6
2023/12/23 10:21:41;;;;;;;3.73;1.77;;;14.90;99.90;;;;;;5068186;28;20174;-6
2023/12/23 10:24:07;;;;;;;5.90;2.10;;;14.90;99.90;;;;;;5098576;28;20348;-6
2023/12/23 10:26:34;;;;;;;5.07;1.60;;;14.90;99.90;;;;;;5065247;28;20191;-6
2023/12/23 10:29:04;;;;;;;4.50;1.40;;;14.90;99.90;;;;;;5065075;28;20706;-6
2023/12/23 10:31:35;;;;;;;7.17;1.70;;;14.90;99.90;;;;;;5065754;28;20166;-6
2023/12/23 10:34:08;;;;;;;2.97;1.40;;;14.90;99.90;;;;;;5063049;28;20328;-6
2023/12/23 10:36:34;;;;;;;4.10;1.40;;;14.90;99.90;;;;;;5065242;28;20241;-5
2023/12/23 10:39:22;;;;;;;3.70;1.60;;;14.80;99.90;;;;;;5063157;28;20185;-5
2023/12/23 10:41:58;;;;;;;5.53;1.50;;;14.80;99.90;;;;;;5064866;28;20395;-6
2023/12/23 10:44:26;;;;;;;3.50;1.43;;;14.80;99.90;;;;;;5063523;28;20418;-6
2023/12/23 10:46:52;;;;;;;4.53;1.50;;;14.80;99.90;;;;;;5073140;28;20176;-6
2023/12/23 10:49:21;;;;;;;6.40;1.50;;;14.80;99.90;;;;;;5061336;28;20223;-6
2023/12/23 10:51:49;;;;;;;3.63;1.70;;;14.80;99.90;;;;;;5056289;28;20152;-7
2023/12/23 10:54:15;;;;;;;4.03;1.40;;;14.80;99.90;;;;;;5067143;28;20621;-6
2023/12/23 10:56:41;;;;;;;4.80;1.20;;;14.80;99.90;;;;;;5074501;28;20280;-7
2023/12/23 10:59:07;;;;;;;5.53;1.40;;;14.90;99.90;;;;;;5071457;28;20249;-6
2023/12/23 11:01:52;;;;;;;4.83;1.47;;;14.90;99.90;;;;;;5069250;28;20201;-6
2023/12/23 11:04:19;;;;;;;2.97;1.30;;;14.90;99.90;;;;;;5055300;28;20607;-6
2023/12/23 11:06:47;;;;;;;4.67;1.70;;;14.90;99.90;;;;;;5071366;28;21022;-6
2023/12/23 11:09:15;;;;;;;3.33;1.57;;;14.90;99.90;;;;;;5079401;28;20162;-6
2023/12/23 11:12:04;;;;;;;4.27;1.27;;;15.00;99.90;;;;;;5077875;28;20174;-6
2023/12/23 11:14:30;;;;;;;5.60;1.60;;;14.90;99.90;;;;;;5079685;28;20252;-6
2023/12/23 11:16:57;;;;;;;3.43;1.17;;;15.00;99.90;;;;;;5078167;28;20265;-6
2023/12/23 11:19:25;;;;;;;2.77;1.50;;;15.00;99.90;;;;;;5075104;28;20172;-6
2023/12/23 11:22:28;;;;;;;2.63;1.30;;;15.00;99.90;;;;;;5058045;28;20589;-7
2023/12/23 11:25:00;;;;;;;2.83;1.30;;;15.00;99.90;;;;;;5057852;28;20203;-6
2023/12/23 11:27:31;;;;;;;1.83;1.20;;;15.00;99.90;;;;;;5058388;28;20185;-6
2023/12/23 11:30:10;;;;;;;2.97;1.20;;;14.90;99.90;;;;;;5058508;28;20312;-6
2023/12/23 11:32:47;;;;;;;3.63;1.27;;;14.90;99.90;;;;;;5057554;28;20178;-8
2023/12/23 11:35:13;;;;;;;2.80;1.00;;;14.90;99.90;;;;;;5059034;28;20178;-6
2023/12/23 11:37:48;;;;;;;4.07;1.40;;;14.90;99.90;;;;;;5059165;28;20200;-7
2023/12/23 11:40:18;;;;;;;3.50;1.20;;;14.90;99.90;;;;;;5059572;28;20171;-6
2023/12/23 11:42:44;;;;;;;5.00;1.67;;;14.90;99.90;;;;;;5059565;28;20280;-7
2023/12/23 11:45:14;;;;;;;3.33;1.57;;;14.90;99.90;;;;;;5058268;28;20289;-6
2023/12/23 11:47:40;;;;;;;2.50;1.47;;;14.90;99.90;;;;;;5042182;28;20168;-6
2023/12/23 11:50:07;;;;;;;2.63;1.33;;;14.90;99.90;;;;;;5059007;28;20173;-6
2023/12/23 11:52:34;;;;;;;2.57;1.30;;;14.90;99.90;;;;;;5058217;28;20209;-6
2023/12/23 11:55:03;;;;;;;2.17;1.27;;;14.90;99.90;;;;;;5058501;28;20687;-6
2023/12/23 11:57:30;;;;;;;2.57;1.10;;;14.90;99.90;;;;;;5058052;28;20173;-6
2023/12/23 11:59:58;;;;;;;2.60;1.30;;;14.90;99.90;;;;;;5068212;28;20274;-6
2023/12/23 12:02:26;;;;;;;3.67;1.20;;;14.90;99.90;;;;;;5076551;28;20182;-6
2023/12/23 12:04:52;;;;;;;2.60;1.20;;;14.80;99.90;;;;;;5058817;28;20231;-6
2023/12/23 12:07:19;;;;;;;2.90;1.40;;;14.80;99.90;;;;;;5058018;28;20172;-6
2023/12/23 12:09:46;;;;;;;2.97;1.23;;;14.80;99.90;;;;;;5066531;28;20441;-7
2023/12/23 12:12:14;;;;;;;1.37;1.00;;;14.80;99.90;;;;;;5072868;28;20281;-7
2023/12/23 12:14:40;;;;;;;3.90;1.10;;;14.80;99.90;;;;;;5075169;28;20174;-7
2023/12/23 12:17:09;;;;;;;3.40;1.30;;;14.80;99.90;;;;;;5075287;28;20164;-6
2023/12/23 12:19:35;;;;;;;2.10;1.20;;;14.80;99.90;;;;;;5075257;28;20177;-7
2023/12/23 12:22:03;;;;;;;1.20;1.00;;;14.80;99.90;;;;;;5075488;28;20168;-7
2023/12/23 12:24:29;;;;;;;3.20;1.23;;;14.80;99.90;;;;;;5075379;28;20198;-6
2023/12/23 12:26:59;;;;;;;3.67;1.23;;;14.80;99.90;;;;;;5075546;28;20192;-6
2023/12/23 12:29:24;;;;;;;2.83;1.27;;;14.80;99.90;;;;;;5072513;28;20302;-6
2023/12/23 12:31:51;;;;;;;2.03;1.30;;;14.80;99.90;;;;;;5075625;28;20716;-7
2023/12/23 12:34:16;;;;;;;2.60;1.30;;;14.80;99.90;;;;;;5100769;28;20173;-7
2023/12/23 12:36:43;;;;;;;2.83;1.23;;;14.80;99.90;;;;;;5074009;28;20606;-6
2023/12/23 12:39:09;;;;;;;2.33;1.30;;;14.80;99.90;;;;;;5074722;28;20200;-5
2023/12/23 12:41:38;;;;;;;1.93;1.10;;;14.80;99.90;;;;;;5074123;28;20173;-6
2023/12/23 12:44:04;;;;;;;2.77;1.30;;;14.80;99.90;;;;;;5070048;28;20282;-6
2023/12/23 12:46:33;;;;;;;3.40;1.33;;;14.80;99.90;;;;;;5073703;28;20175;-6
2023/12/23 12:49:06;;;;;;;3.70;1.27;;;14.80;99.90;;;;;;5075822;28;20174;-6
2023/12/23 12:51:32;;;;;;;2.37;1.10;;;14.80;99.90;;;;;;5076051;28;20305;-6
2023/12/23 12:54:00;;;;;;;2.00;1.20;;;14.80;99.90;;;;;;5075490;28;20548;-5
2023/12/23 12:56:26;;;;;;;2.63;1.33;;;14.80;99.90;;;;;;5063987;28;20322;-6
2023/12/23 12:58:52;;;;;;;1.40;1.00;;;14.80;99.90;;;;;;5065019;28;20165;-5
2023/12/23 13:01:20;;;;;;;3.27;1.00;;;14.80;99.90;;;;;;5065869;28;20322;-6